Time;durP1;ratioP1;P1;durP2;ratioP2;P2;SDS_P1;SDS_P2;PMS_P1;PMS_P2;Temp;Humidity;BMP_temperature;BMP_pressure;BME280_temperature;BME280_humidity;BME280_pressure;Samples;Min_cycle;Max_cycle;Signal;HPM_P1;HPM_P2
2022/07/26 00:02:04;;;;;;;6.53;3.27;;;25.50;63.50;;;;;;5021396;28;20495;-78
2022/07/26 00:04:32;;;;;;;8.20;3.60;;;25.50;63.50;;;;;;5024804;28;20465;-78
2022/07/26 00:07:00;;;;;;;10.20;3.23;;;25.50;63.50;;;;;;5024082;28;20491;-77
2022/07/26 00:09:28;;;;;;;7.20;2.90;;;25.50;63.50;;;;;;5021916;28;20483;-78
2022/07/26 00:11:58;;;;;;;7.07;2.70;;;25.50;63.60;;;;;;5024756;28;20469;-77
2022/07/26 00:14:26;;;;;;;7.20;3.10;;;25.50;63.60;;;;;;5023344;28;20472;-78
2022/07/26 00:16:54;;;;;;;6.40;3.33;;;25.50;63.60;;;;;;5023308;28;20484;-78
2022/07/26 00:30:25;;;;;;;6.30;3.53;;;25.50;63.70;;;;;;5021167;28;20487;-78
2022/07/26 00:32:53;;;;;;;9.73;3.60;;;25.50;63.80;;;;;;5023118;28;20472;-79
2022/07/26 00:35:21;;;;;;;5.33;2.90;;;25.50;63.90;;;;;;5023114;28;20482;-78
2022/07/26 00:37:49;;;;;;;6.77;2.97;;;25.50;63.90;;;;;;5023292;28;20496;-78
2022/07/26 00:40:18;;;;;;;7.57;3.20;;;25.50;64.00;;;;;;5023349;28;21044;-78
2022/07/26 00:42:47;;;;;;;6.60;3.07;;;25.50;64.00;;;;;;5022536;28;20456;-79
2022/07/26 00:45:17;;;;;;;8.23;3.00;;;25.50;64.00;;;;;;5017886;28;20999;-78
2022/07/26 00:47:45;;;;;;;9.50;3.47;;;25.50;64.10;;;;;;5007612;28;20479;-78
2022/07/26 00:50:15;;;;;;;7.80;3.30;;;25.50;64.30;;;;;;5022430;28;20499;-79
2022/07/26 00:52:44;;;;;;;8.40;3.33;;;25.50;64.40;;;;;;5021415;28;20482;-78
2022/07/26 00:55:14;;;;;;;10.67;3.00;;;25.50;64.40;;;;;;5019444;28;20465;-79
2022/07/26 00:57:43;;;;;;;6.20;3.50;;;25.40;64.40;;;;;;5024459;28;20498;-78
2022/07/26 01:00:16;;;;;;;11.70;3.60;;;25.40;64.40;;;;;;5027056;28;20461;-77
2022/07/26 01:02:44;;;;;;;8.53;3.73;;;25.40;64.50;;;;;;5020889;28;20465;-78
2022/07/26 01:05:12;;;;;;;7.40;3.30;;;25.30;64.40;;;;;;5023362;28;21171;-78
2022/07/26 01:07:41;;;;;;;6.90;3.03;;;25.30;64.40;;;;;;5024036;28;20845;-78
2022/07/26 01:10:11;;;;;;;14.03;3.10;;;25.30;64.30;;;;;;5021635;28;20519;-78
2022/07/26 01:12:40;;;;;;;8.00;3.60;;;25.20;64.30;;;;;;5022236;28;21286;-78
2022/07/26 01:15:10;;;;;;;7.23;3.40;;;25.20;64.30;;;;;;5022953;28;20547;-79
2022/07/26 01:17:40;;;;;;;7.30;3.37;;;25.20;64.40;;;;;;5022389;28;20490;-78
2022/07/26 01:20:10;;;;;;;7.00;4.23;;;25.20;64.50;;;;;;5020380;28;20471;-78
2022/07/26 01:22:40;;;;;;;8.20;4.00;;;25.20;64.70;;;;;;5025231;28;20453;-78
2022/07/26 01:25:09;;;;;;;7.50;3.43;;;25.10;64.80;;;;;;5022579;28;20947;-78
2022/07/26 01:27:38;;;;;;;6.80;3.50;;;25.10;64.80;;;;;;5022061;28;20581;-78
2022/07/26 01:30:09;;;;;;;8.70;3.97;;;25.10;64.80;;;;;;5010023;28;20490;-78
2022/07/26 01:32:37;;;;;;;8.23;3.93;;;25.10;64.90;;;;;;5020696;28;20482;-78
2022/07/26 01:35:07;;;;;;;9.13;3.97;;;25.10;64.90;;;;;;5020601;28;21071;-78
2022/07/26 01:37:35;;;;;;;11.10;3.93;;;25.10;64.90;;;;;;5022665;28;20483;-78
2022/07/26 01:40:05;;;;;;;6.50;3.73;;;25.00;64.90;;;;;;5027150;28;21017;-78
2022/07/26 01:42:35;;;;;;;8.40;3.97;;;24.90;64.90;;;;;;5023665;28;20502;-79
2022/07/26 01:45:03;;;;;;;8.37;4.07;;;24.90;64.90;;;;;;5026522;28;20976;-78
2022/07/26 01:47:31;;;;;;;10.93;4.20;;;24.80;65.00;;;;;;5025427;28;20538;-79
2022/07/26 01:49:59;;;;;;;7.43;3.33;;;24.80;65.00;;;;;;5024085;28;20487;-78
2022/07/26 01:52:27;;;;;;;6.30;3.50;;;24.70;64.90;;;;;;5026312;28;20467;-78
2022/07/26 01:54:55;;;;;;;7.30;3.43;;;24.70;65.10;;;;;;5024973;28;20845;-79
2022/07/26 01:57:26;;;;;;;7.43;4.33;;;24.60;65.20;;;;;;5027194;28;20468;-78
2022/07/26 01:59:54;;;;;;;6.90;3.50;;;24.60;65.30;;;;;;5023831;28;20465;-78
2022/07/26 02:02:22;;;;;;;6.20;3.50;;;24.50;65.40;;;;;;5024412;28;20484;-78
2022/07/26 02:04:59;;;;;;;6.50;3.83;;;24.50;65.40;;;;;;5026209;28;20493;-78
2022/07/26 02:07:27;;;;;;;6.87;3.63;;;24.50;65.30;;;;;;5028535;28;20496;-79
2022/07/26 02:09:56;;;;;;;7.17;3.97;;;24.40;65.30;;;;;;5026159;28;20481;-78
2022/07/26 02:12:26;;;;;;;10.80;4.00;;;24.30;65.40;;;;;;5026176;28;20458;-78
2022/07/26 02:14:54;;;;;;;9.30;4.80;;;24.30;65.40;;;;;;5025533;28;20462;-78
2022/07/26 02:17:37;;;;;;;9.03;3.90;;;24.20;65.30;;;;;;5025763;28;20857;-78
2022/07/26 02:20:06;;;;;;;8.93;3.70;;;24.10;65.30;;;;;;5025965;28;20473;-78
2022/07/26 02:22:35;;;;;;;6.43;3.67;;;24.00;65.40;;;;;;5025608;28;20468;-78
2022/07/26 02:25:04;;;;;;;6.57;3.27;;;23.90;65.60;;;;;;5024197;28;20528;-78
2022/07/26 02:27:33;;;;;;;9.50;4.00;;;23.90;65.70;;;;;;5022223;28;20493;-79
2022/07/26 02:30:01;;;;;;;6.67;3.53;;;23.90;65.70;;;;;;5026246;28;20490;-79
2022/07/26 02:32:29;;;;;;;5.80;3.57;;;23.90;65.70;;;;;;5020629;28;20482;-78
2022/07/26 02:34:57;;;;;;;5.77;3.50;;;23.80;65.60;;;;;;5022230;28;20481;-78
2022/07/26 02:37:25;;;;;;;8.27;3.57;;;23.80;65.60;;;;;;5023331;28;20508;-78
2022/07/26 02:39:53;;;;;;;8.87;4.10;;;23.70;65.60;;;;;;5012155;28;20860;-78
2022/07/26 02:42:21;;;;;;;10.00;4.30;;;23.70;65.70;;;;;;5022954;28;20473;-79
2022/07/26 02:44:50;;;;;;;7.87;3.43;;;23.60;65.70;;;;;;5025265;28;20462;-78
2022/07/26 02:47:18;;;;;;;12.80;4.10;;;23.60;65.70;;;;;;5025206;28;20468;-78
2022/07/26 02:49:46;;;;;;;8.00;3.73;;;23.60;65.70;;;;;;5027413;28;20481;-78
2022/07/26 02:52:13;;;;;;;6.80;3.80;;;23.50;65.70;;;;;;5023933;28;20479;-79
2022/07/26 02:54:41;;;;;;;6.70;4.17;;;23.50;65.70;;;;;;5032228;28;21000;-78
2022/07/26 02:57:09;;;;;;;7.37;3.67;;;23.40;65.70;;;;;;5024611;28;20513;-79
2022/07/26 02:59:37;;;;;;;8.90;4.20;;;23.30;65.60;;;;;;5025642;28;20504;-78
2022/07/26 03:02:07;;;;;;;9.87;4.23;;;23.20;65.70;;;;;;5023752;28;20618;-78
2022/07/26 03:04:35;;;;;;;7.80;3.87;;;23.20;65.70;;;;;;5024417;28;20570;-78
2022/07/26 03:07:03;;;;;;;9.13;3.87;;;23.10;66.00;;;;;;5025640;28;20490;-78
2022/07/26 03:09:31;;;;;;;9.50;4.20;;;23.00;66.00;;;;;;5027971;28;20978;-78
2022/07/26 03:11:58;;;;;;;9.00;3.67;;;23.00;66.10;;;;;;5025027;28;20520;-78
2022/07/26 03:14:26;;;;;;;6.73;3.90;;;23.00;66.10;;;;;;5028248;28;20456;-80
2022/07/26 03:16:54;;;;;;;8.20;4.13;;;22.90;66.20;;;;;;5029231;28;20498;-80
2022/07/26 03:19:23;;;;;;;7.60;3.77;;;22.90;66.20;;;;;;5032730;28;20469;-80
2022/07/26 03:21:51;;;;;;;7.03;3.93;;;22.90;66.20;;;;;;5029028;28;20470;-80
2022/07/26 03:24:19;;;;;;;9.67;3.87;;;22.80;66.20;;;;;;5034035;28;20456;-80
2022/07/26 03:26:48;;;;;;;9.37;4.20;;;22.80;66.20;;;;;;5027833;28;20473;-79
2022/07/26 03:29:16;;;;;;;7.60;3.80;;;22.70;66.30;;;;;;5030373;28;20460;-79
2022/07/26 03:31:44;;;;;;;7.60;3.80;;;22.70;66.30;;;;;;5031273;28;20832;-80
2022/07/26 03:34:12;;;;;;;7.90;4.20;;;22.70;66.30;;;;;;5030488;28;20494;-79
2022/07/26 03:36:42;;;;;;;5.70;3.53;;;22.70;66.20;;;;;;5019050;28;20465;-79
2022/07/26 03:39:11;;;;;;;6.93;3.63;;;22.60;66.10;;;;;;5025685;28;20524;-79
2022/07/26 03:41:38;;;;;;;6.83;4.00;;;22.60;66.10;;;;;;5024102;28;20459;-79
2022/07/26 03:44:06;;;;;;;9.53;4.17;;;22.60;66.00;;;;;;5023479;28;20469;-80
2022/07/26 03:46:35;;;;;;;8.30;4.03;;;22.50;66.10;;;;;;5021089;28;20522;-79
2022/07/26 03:49:03;;;;;;;7.90;4.40;;;22.50;66.00;;;;;;5023475;28;20468;-79
2022/07/26 03:51:32;;;;;;;9.60;3.40;;;22.50;66.00;;;;;;5022665;28;20491;-80
2022/07/26 03:54:01;;;;;;;12.77;5.07;;;22.40;65.90;;;;;;5025223;28;20522;-79
2022/07/26 03:56:30;;;;;;;6.80;3.90;;;22.30;65.90;;;;;;5025041;28;20456;-79
2022/07/26 03:59:00;;;;;;;11.33;3.90;;;22.30;66.00;;;;;;5028876;28;21024;-80
2022/07/26 04:01:29;;;;;;;6.93;3.60;;;22.20;66.10;;;;;;5022365;28;20579;-79
2022/07/26 04:03:57;;;;;;;9.33;3.70;;;22.20;66.30;;;;;;5020487;28;20472;-79
2022/07/26 04:06:26;;;;;;;7.23;4.00;;;22.20;66.30;;;;;;5024405;28;20877;-79
2022/07/26 04:08:53;;;;;;;7.73;3.77;;;22.20;66.20;;;;;;5020793;28;20481;-79
2022/07/26 04:11:23;;;;;;;8.63;4.00;;;22.10;66.10;;;;;;5020375;28;21029;-79
2022/07/26 04:13:55;;;;;;;8.33;4.03;;;22.00;66.10;;;;;;5008235;28;20490;-79
2022/07/26 04:16:24;;;;;;;7.20;4.70;;;22.00;66.20;;;;;;5020034;28;20572;-79
2022/07/26 04:18:53;;;;;;;9.57;4.00;;;21.90;66.30;;;;;;5024167;28;20499;-79
2022/07/26 04:21:21;;;;;;;8.43;4.13;;;21.90;66.40;;;;;;5022348;28;20469;-79
2022/07/26 04:23:49;;;;;;;8.60;4.40;;;21.80;66.60;;;;;;5023434;28;20461;-79
2022/07/26 04:26:19;;;;;;;8.97;5.00;;;21.90;66.80;;;;;;5022986;28;20475;-79
2022/07/26 04:28:49;;;;;;;8.93;4.33;;;21.90;67.00;;;;;;5019742;28;20493;-79
2022/07/26 04:31:17;;;;;;;7.10;4.33;;;21.90;67.20;;;;;;5020281;28;20874;-80
2022/07/26 04:33:45;;;;;;;8.07;3.80;;;22.00;67.20;;;;;;5025037;28;20472;-79
2022/07/26 04:36:13;;;;;;;9.20;4.10;;;22.00;67.20;;;;;;5021020;28;21004;-80
2022/07/26 04:38:41;;;;;;;9.20;4.87;;;22.00;67.30;;;;;;5020438;28;20493;-79
2022/07/26 04:41:09;;;;;;;9.30;4.20;;;22.00;67.20;;;;;;5023338;28;20473;-79
2022/07/26 04:43:37;;;;;;;13.23;3.80;;;22.00;67.10;;;;;;5023643;28;20470;-79
2022/07/26 04:46:06;;;;;;;9.80;4.57;;;22.00;67.10;;;;;;5016724;28;20500;-79
2022/07/26 04:48:36;;;;;;;8.03;4.40;;;22.00;67.30;;;;;;5021652;28;21293;-79
2022/07/26 04:51:05;;;;;;;11.50;4.40;;;22.00;67.40;;;;;;5023426;28;20481;-80
2022/07/26 04:53:32;;;;;;;8.70;4.20;;;22.00;67.60;;;;;;5019112;28;20943;-80
2022/07/26 04:56:00;;;;;;;8.67;4.50;;;22.10;67.70;;;;;;5022206;28;20475;-79
2022/07/26 04:58:28;;;;;;;7.83;4.10;;;22.10;67.80;;;;;;5023673;28;20496;-79
2022/07/26 05:00:56;;;;;;;7.50;4.60;;;22.20;67.90;;;;;;5021250;28;20472;-80
2022/07/26 05:03:41;;;;;;;12.77;4.47;;;22.20;67.90;;;;;;5020710;28;20474;-80
2022/07/26 05:06:09;;;;;;;11.97;4.57;;;22.20;68.10;;;;;;5020100;28;20460;-79
2022/07/26 05:08:37;;;;;;;6.53;4.00;;;22.20;68.20;;;;;;5022484;28;20476;-79
2022/07/26 05:11:05;;;;;;;10.67;4.23;;;22.20;68.20;;;;;;5026312;28;20495;-80
2022/07/26 05:13:33;;;;;;;9.93;4.50;;;22.20;68.30;;;;;;5027159;28;20467;-79
2022/07/26 05:16:01;;;;;;;8.37;4.43;;;22.30;68.50;;;;;;5024735;28;20497;-79
2022/07/26 05:18:29;;;;;;;7.40;4.10;;;22.40;68.50;;;;;;5015594;28;21039;-80
2022/07/26 05:21:12;;;;;;;8.10;4.77;;;22.40;68.60;;;;;;5025825;28;20473;-79
2022/07/26 05:23:40;;;;;;;8.53;3.90;;;22.50;68.70;;;;;;5026374;28;20458;-79
2022/07/26 05:26:08;;;;;;;8.40;4.43;;;22.50;68.80;;;;;;5023599;28;20474;-79
2022/07/26 05:28:37;;;;;;;7.80;4.17;;;22.50;68.90;;;;;;5024111;28;20490;-80
2022/07/26 05:31:06;;;;;;;30.50;22.33;;;22.60;68.90;;;;;;5023780;28;20473;-79
2022/07/26 05:33:34;;;;;;;11.43;6.10;;;22.60;69.00;;;;;;5025359;28;20505;-79
2022/07/26 05:36:02;;;;;;;9.50;4.83;;;22.70;69.30;;;;;;5027069;28;20468;-79
2022/07/26 05:38:31;;;;;;;8.40;4.67;;;22.90;69.20;;;;;;5025547;28;20487;-79
2022/07/26 05:40:59;;;;;;;6.20;4.43;;;23.00;69.10;;;;;;5026025;28;20468;-80
2022/07/26 05:43:27;;;;;;;8.03;4.57;;;23.30;70.20;;;;;;5025440;28;20466;-79
2022/07/26 05:46:09;;;;;;;9.33;4.93;;;24.40;69.90;;;;;;5024589;28;20653;-79
2022/07/26 05:48:38;;;;;;;8.10;4.07;;;25.90;67.70;;;;;;5012493;28;20851;-79
2022/07/26 05:51:06;;;;;;;7.83;4.10;;;26.90;65.40;;;;;;5026615;28;20489;-79
2022/07/26 05:53:35;;;;;;;9.50;3.83;;;27.10;64.50;;;;;;5024737;28;20481;-78
2022/07/26 05:56:04;;;;;;;11.53;3.80;;;27.60;64.60;;;;;;5023582;28;20475;-79
2022/07/26 05:58:32;;;;;;;10.90;3.47;;;28.40;63.60;;;;;;5021655;28;20488;-78
2022/07/26 06:01:00;;;;;;;6.90;4.20;;;29.40;62.60;;;;;;5023108;28;20483;-78
2022/07/26 06:03:29;;;;;;;7.60;3.63;;;30.40;61.20;;;;;;5022138;28;21015;-78
2022/07/26 06:05:58;;;;;;;8.30;3.50;;;31.30;59.40;;;;;;5023279;28;21046;-78
2022/07/26 06:08:27;;;;;;;6.73;3.00;;;32.20;58.00;;;;;;5023779;28;20701;-78
2022/07/26 06:10:56;;;;;;;6.60;2.67;;;33.00;56.50;;;;;;5023509;28;20462;-78
2022/07/26 06:13:24;;;;;;;7.37;3.00;;;33.80;54.90;;;;;;5022781;28;20490;-78
2022/07/26 06:15:52;;;;;;;7.43;2.97;;;34.30;53.20;;;;;;5022009;28;20505;-78
2022/07/26 06:18:21;;;;;;;6.47;3.07;;;34.40;51.40;;;;;;5021094;28;20471;-78
2022/07/26 06:20:50;;;;;;;10.27;3.30;;;34.20;51.50;;;;;;5022338;28;20470;-78
2022/07/26 06:23:18;;;;;;;6.97;3.07;;;34.40;51.10;;;;;;5011507;28;20466;-78
2022/07/26 06:26:03;;;;;;;6.47;3.13;;;34.20;50.00;;;;;;5024038;28;20557;-79
2022/07/26 06:28:32;;;;;;;8.40;2.97;;;32.90;49.50;;;;;;5012197;28;20477;-78
2022/07/26 06:31:00;;;;;;;10.27;3.37;;;31.40;50.50;;;;;;5024316;28;20503;-78
2022/07/26 06:33:28;;;;;;;8.80;3.10;;;30.10;51.70;;;;;;5023172;28;20505;-77
2022/07/26 06:35:56;;;;;;;6.70;3.30;;;29.00;52.90;;;;;;5023840;28;20592;-77
2022/07/26 06:38:24;;;;;;;6.17;3.00;;;28.00;54.30;;;;;;5025290;28;20489;-77
2022/07/26 06:40:52;;;;;;;8.67;2.97;;;27.30;55.30;;;;;;5024740;28;20471;-78
2022/07/26 06:43:21;;;;;;;11.07;3.50;;;26.80;56.20;;;;;;5025500;28;20452;-77
2022/07/26 06:45:49;;;;;;;7.13;2.70;;;26.40;56.90;;;;;;5019030;28;20471;-77
2022/07/26 06:48:17;;;;;;;8.60;2.03;;;26.20;57.40;;;;;;5022678;28;20493;-78
2022/07/26 06:50:45;;;;;;;8.13;3.10;;;25.90;57.90;;;;;;5024787;28;20482;-78
2022/07/26 06:53:13;;;;;;;6.37;3.03;;;25.60;58.30;;;;;;5025204;28;20487;-77
2022/07/26 06:55:42;;;;;;;7.20;2.80;;;25.40;58.80;;;;;;5023131;28;20459;-77
2022/07/26 06:58:10;;;;;;;13.93;3.57;;;25.20;59.10;;;;;;5026401;28;20477;-77
2022/07/26 07:00:39;;;;;;;5.90;3.07;;;25.10;59.30;;;;;;5023082;28;20477;-78
2022/07/26 07:03:08;;;;;;;6.43;2.43;;;25.00;59.60;;;;;;5025127;28;21259;-78
2022/07/26 07:05:35;;;;;;;5.57;2.43;;;25.00;59.70;;;;;;5025470;28;20462;-77
2022/07/26 07:08:05;;;;;;;6.10;2.83;;;24.90;59.90;;;;;;5020503;28;20470;-78
2022/07/26 07:10:34;;;;;;;8.03;2.33;;;24.90;60.10;;;;;;5012793;28;20480;-78
2022/07/26 07:13:02;;;;;;;6.00;2.40;;;24.80;60.20;;;;;;5020129;28;20493;-77
2022/07/26 07:15:30;;;;;;;6.63;3.00;;;24.70;60.30;;;;;;5024551;28;20479;-77
2022/07/26 07:18:00;;;;;;;9.57;2.70;;;24.70;60.50;;;;;;5024674;28;20474;-77
2022/07/26 07:20:28;;;;;;;6.53;2.63;;;24.60;60.60;;;;;;5026266;28;20466;-77
2022/07/26 07:22:56;;;;;;;6.70;2.73;;;24.50;60.60;;;;;;5023020;28;20473;-76
2022/07/26 07:25:24;;;;;;;7.20;2.47;;;24.40;60.90;;;;;;5022769;28;20478;-76
2022/07/26 07:27:58;;;;;;;6.40;2.67;;;24.30;61.10;;;;;;5020630;28;20502;-76
2022/07/26 07:30:26;;;;;;;5.33;2.70;;;24.20;61.10;;;;;;5024229;28;20477;-77
2022/07/26 07:32:55;;;;;;;12.83;3.43;;;24.10;61.40;;;;;;5025000;28;20477;-76
2022/07/26 07:35:25;;;;;;;7.87;2.93;;;24.00;61.60;;;;;;5024191;28;20459;-76
2022/07/26 07:38:00;;;;;;;5.73;2.40;;;23.90;61.90;;;;;;5025204;28;21058;-77
2022/07/26 07:40:28;;;;;;;8.83;2.97;;;23.90;62.00;;;;;;5023602;28;20450;-77
2022/07/26 07:42:57;;;;;;;8.43;2.30;;;23.90;62.20;;;;;;5020618;28;20465;-77
2022/07/26 07:45:25;;;;;;;6.90;2.63;;;23.90;62.30;;;;;;5024675;28;20462;-77
2022/07/26 07:47:53;;;;;;;8.70;3.10;;;23.90;62.50;;;;;;5023720;28;20480;-77
2022/07/26 07:50:21;;;;;;;6.03;2.50;;;24.00;62.40;;;;;;5016954;28;20478;-77
2022/07/26 07:52:55;;;;;;;6.43;3.00;;;24.00;62.30;;;;;;5024046;28;20485;-77
2022/07/26 07:55:26;;;;;;;7.53;2.73;;;24.00;62.30;;;;;;5022822;28;21006;-77
2022/07/26 07:58:14;;;;;;;6.50;3.13;;;24.00;62.40;;;;;;5024927;28;20939;-77
2022/07/26 08:00:44;;;;;;;14.47;2.90;;;24.00;62.50;;;;;;5024351;28;20485;-76
2022/07/26 08:03:13;;;;;;;8.27;3.10;;;24.00;62.60;;;;;;5021134;28;20545;-77
2022/07/26 08:05:46;;;;;;;5.80;2.77;;;24.10;62.60;;;;;;5022766;28;21079;-76
2022/07/26 08:08:19;;;;;;;7.30;3.20;;;24.10;62.60;;;;;;5011152;28;20478;-76
2022/07/26 08:10:50;;;;;;;7.03;3.30;;;24.20;62.70;;;;;;5027883;28;20840;-76
2022/07/26 08:13:20;;;;;;;10.40;3.20;;;24.20;62.60;;;;;;5021753;28;20480;-77
2022/07/26 08:15:49;;;;;;;7.70;3.33;;;24.30;62.50;;;;;;5022641;28;21216;-77
2022/07/26 08:18:17;;;;;;;6.40;2.67;;;24.30;62.60;;;;;;5021427;28;20489;-76
2022/07/26 08:20:49;;;;;;;8.17;2.97;;;24.30;62.50;;;;;;5018104;28;21019;-77
2022/07/26 08:23:19;;;;;;;4.80;2.20;;;24.30;62.70;;;;;;5019772;28;20945;-76
2022/07/26 08:25:48;;;;;;;6.57;2.60;;;24.30;62.20;;;;;;5018854;28;20457;-77
2022/07/26 08:28:24;;;;;;;7.33;2.40;;;24.30;62.20;;;;;;5022749;28;20499;-76
2022/07/26 08:31:12;;;;;;;5.50;2.30;;;24.30;61.90;;;;;;5022053;28;20482;-76
2022/07/26 08:33:40;;;;;;;6.17;2.27;;;24.20;61.80;;;;;;5019810;28;20578;-77
2022/07/26 08:36:14;;;;;;;5.47;2.20;;;24.10;61.80;;;;;;5020263;28;20497;-76
2022/07/26 08:38:43;;;;;;;9.50;2.07;;;24.10;61.70;;;;;;5024592;28;20477;-77
2022/07/26 08:41:14;;;;;;;5.27;1.90;;;24.10;61.80;;;;;;5024043;28;20470;-76
2022/07/26 08:43:42;;;;;;;5.33;2.10;;;24.20;61.50;;;;;;5021328;28;20476;-76
2022/07/26 08:46:19;;;;;;;5.57;1.83;;;24.30;61.10;;;;;;5022501;28;20479;-77
2022/07/26 08:48:52;;;;;;;5.10;1.77;;;24.30;60.90;;;;;;5023917;28;20534;-76
2022/07/26 08:51:23;;;;;;;5.90;1.50;;;24.30;60.80;;;;;;5022396;28;20878;-76
2022/07/26 08:53:57;;;;;;;4.97;1.60;;;24.30;60.70;;;;;;5019491;28;21239;-76
2022/07/26 08:56:33;;;;;;;5.20;1.50;;;24.30;60.70;;;;;;5022390;28;20867;-77
2022/07/26 08:59:05;;;;;;;4.27;1.53;;;24.40;60.50;;;;;;5022051;28;21003;-77
2022/07/26 09:01:34;;;;;;;6.60;1.70;;;24.40;60.30;;;;;;5020586;28;20485;-77
2022/07/26 09:04:17;;;;;;;7.07;1.53;;;24.40;60.10;;;;;;5025708;28;20477;-77
2022/07/26 09:07:02;;;;;;;6.23;1.40;;;24.40;60.30;;;;;;5022573;28;20963;-77
2022/07/26 09:09:32;;;;;;;6.43;2.00;;;24.50;60.30;;;;;;5023480;28;20538;-77
2022/07/26 09:12:14;;;;;;;4.70;1.60;;;24.60;60.10;;;;;;5025484;28;20457;-77
2022/07/26 09:14:45;;;;;;;5.20;1.53;;;24.70;59.90;;;;;;5019892;28;20535;-77
2022/07/26 09:17:14;;;;;;;9.40;1.67;;;24.70;59.70;;;;;;5024491;28;21084;-76
2022/07/26 09:19:42;;;;;;;4.50;1.47;;;24.70;59.50;;;;;;5024300;28;20470;-76
2022/07/26 09:22:12;;;;;;;5.50;1.60;;;24.70;59.30;;;;;;5027930;28;20535;-77
2022/07/26 09:24:43;;;;;;;7.13;1.27;;;24.70;59.40;;;;;;5029617;28;20448;-77
2022/07/26 09:27:12;;;;;;;4.20;1.20;;;24.80;59.00;;;;;;5033956;28;20474;-77
2022/07/26 09:29:48;;;;;;;8.00;1.40;;;24.70;57.90;;;;;;5028138;28;20458;-76
2022/07/26 09:32:18;;;;;;;5.77;1.70;;;24.70;58.60;;;;;;5031298;28;20485;-77
2022/07/26 09:34:48;;;;;;;5.73;1.97;;;24.70;58.80;;;;;;5029706;28;20478;-76
2022/07/26 09:37:32;;;;;;;5.60;1.50;;;24.70;59.00;;;;;;5031011;28;21085;-76
2022/07/26 09:40:05;;;;;;;5.60;1.30;;;24.70;58.80;;;;;;5028614;28;20486;-77
2022/07/26 09:42:32;;;;;;;5.57;1.60;;;24.80;59.00;;;;;;5025414;28;20463;-77
2022/07/26 09:45:01;;;;;;;5.47;1.50;;;24.80;58.90;;;;;;5025619;28;20455;-77
2022/07/26 09:47:36;;;;;;;5.83;1.40;;;24.90;58.90;;;;;;5022540;28;20490;-76
2022/07/26 09:50:15;;;;;;;4.20;1.40;;;25.00;58.90;;;;;;5025274;28;20483;-77
2022/07/26 09:52:58;;;;;;;5.07;1.50;;;25.00;58.80;;;;;;5025071;28;20454;-77
2022/07/26 09:55:27;;;;;;;4.77;1.17;;;25.10;58.40;;;;;;5026264;28;20483;-77
2022/07/26 09:58:10;;;;;;;3.83;1.17;;;25.10;57.90;;;;;;5025362;28;20481;-76
2022/07/26 10:00:44;;;;;;;3.80;1.10;;;25.10;57.70;;;;;;5029299;28;20470;-77
2022/07/26 10:03:12;;;;;;;4.23;1.40;;;25.10;57.90;;;;;;5027908;28;20463;-77
2022/07/26 10:05:41;;;;;;;4.77;1.50;;;25.20;57.90;;;;;;5026919;28;20473;-77
2022/07/26 10:08:09;;;;;;;5.93;1.50;;;25.20;57.80;;;;;;5014263;28;20487;-76
2022/07/26 10:10:44;;;;;;;4.20;1.30;;;25.30;57.70;;;;;;5018052;28;20451;-76
2022/07/26 10:13:13;;;;;;;5.70;1.10;;;25.40;57.50;;;;;;5027545;28;20550;-77
2022/07/26 10:15:43;;;;;;;4.40;1.40;;;25.40;57.00;;;;;;5017974;28;21249;-77
2022/07/26 10:18:44;;;;;;;4.70;1.30;;;25.50;57.20;;;;;;5011018;28;20512;-77
2022/07/26 10:21:19;;;;;;;6.03;1.30;;;25.60;56.90;;;;;;5028127;28;20511;-77
2022/07/26 10:23:48;;;;;;;5.13;1.20;;;25.60;56.60;;;;;;5027294;28;20467;-77
2022/07/26 10:26:37;;;;;;;6.80;1.53;;;25.60;56.60;;;;;;5028800;28;20440;-77
2022/07/26 10:29:28;;;;;;;4.80;1.40;;;25.60;56.50;;;;;;5029057;28;20479;-77
2022/07/26 10:32:20;;;;;;;3.57;1.17;;;25.70;55.90;;;;;;5028165;28;20836;-77
2022/07/26 10:34:49;;;;;;;6.13;1.40;;;25.60;55.60;;;;;;5008168;28;20479;-77
2022/07/26 10:37:26;;;;;;;4.30;1.50;;;25.60;55.80;;;;;;5028226;28;20851;-77
2022/07/26 10:40:17;;;;;;;5.80;1.77;;;25.60;55.90;;;;;;5009279;28;20835;-76
2022/07/26 10:42:46;;;;;;;3.93;1.23;;;25.60;55.80;;;;;;5028643;28;20461;-77
2022/07/26 10:45:22;;;;;;;5.07;1.20;;;25.70;56.00;;;;;;5030293;28;20464;-77
2022/07/26 10:48:14;;;;;;;4.23;1.33;;;25.70;56.00;;;;;;5028990;28;20480;-76
2022/07/26 10:50:43;;;;;;;3.90;1.30;;;25.70;55.90;;;;;;5033789;28;20968;-76
2022/07/26 10:53:18;;;;;;;3.80;1.10;;;25.80;55.80;;;;;;5024291;28;20473;-77
2022/07/26 10:55:48;;;;;;;4.13;1.23;;;25.80;55.60;;;;;;5025824;28;20483;-76
2022/07/26 10:58:18;;;;;;;5.87;1.20;;;25.90;55.60;;;;;;5024782;28;20492;-77
2022/07/26 11:00:57;;;;;;;3.80;1.00;;;25.90;55.50;;;;;;5027134;28;20465;-77
2022/07/26 11:03:25;;;;;;;5.33;1.13;;;25.90;55.50;;;;;;5026778;28;20445;-77
2022/07/26 11:05:53;;;;;;;4.63;1.10;;;26.00;55.50;;;;;;5026399;28;20447;-77
2022/07/26 11:08:29;;;;;;;3.93;1.00;;;26.00;54.70;;;;;;5024352;28;20485;-77
2022/07/26 11:10:57;;;;;;;5.80;1.07;;;26.00;54.60;;;;;;5026489;28;20556;-77
2022/07/26 11:13:27;;;;;;;4.53;1.33;;;26.00;54.40;;;;;;5026085;28;20466;-77
2022/07/26 11:16:01;;;;;;;5.60;1.30;;;26.00;54.00;;;;;;5026474;28;20470;-77
2022/07/26 11:18:34;;;;;;;4.20;1.17;;;26.00;54.00;;;;;;5027126;28;20480;-77
2022/07/26 11:21:09;;;;;;;4.07;0.97;;;25.90;54.20;;;;;;5024979;28;20465;-77
2022/07/26 11:23:39;;;;;;;3.27;0.77;;;25.90;53.80;;;;;;5021026;28;20472;-77
2022/07/26 11:26:13;;;;;;;4.70;0.90;;;26.00;54.00;;;;;;5014020;28;20507;-77
2022/07/26 11:28:52;;;;;;;4.37;1.10;;;26.00;53.90;;;;;;5026756;28;20491;-77
2022/07/26 11:31:24;;;;;;;5.77;1.27;;;26.10;53.80;;;;;;5024411;28;20485;-76
2022/07/26 11:34:17;;;;;;;3.87;1.23;;;26.10;53.60;;;;;;5023144;28;20536;-77
2022/07/26 11:36:46;;;;;;;3.40;1.20;;;26.20;53.30;;;;;;5023991;28;20496;-76
2022/07/26 11:39:20;;;;;;;3.93;1.13;;;26.20;53.20;;;;;;5024097;28;20534;-77
2022/07/26 11:41:48;;;;;;;4.00;1.10;;;26.30;53.10;;;;;;5022085;28;21119;-76
2022/07/26 11:44:19;;;;;;;4.00;1.10;;;26.30;52.70;;;;;;5025084;28;20454;-77
2022/07/26 11:46:48;;;;;;;4.07;1.20;;;26.30;52.70;;;;;;5024524;28;20474;-76
2022/07/26 11:49:18;;;;;;;4.10;1.13;;;26.20;52.70;;;;;;5024783;28;20523;-77
2022/07/26 11:51:51;;;;;;;4.47;1.10;;;26.10;52.50;;;;;;5020140;28;20855;-77
2022/07/26 11:54:19;;;;;;;8.53;1.37;;;26.10;52.90;;;;;;5023745;28;20469;-77
2022/07/26 11:56:55;;;;;;;4.00;1.47;;;26.00;52.90;;;;;;5024276;28;20478;-77
2022/07/26 11:59:27;;;;;;;5.00;1.53;;;26.00;53.00;;;;;;5024123;28;20449;-76
2022/07/26 12:01:56;;;;;;;5.43;2.00;;;26.10;53.20;;;;;;5022391;28;20473;-77
2022/07/26 12:04:26;;;;;;;4.93;1.57;;;26.10;53.20;;;;;;5025881;28;20463;-77
2022/07/26 12:06:57;;;;;;;6.33;1.10;;;26.20;53.20;;;;;;5023712;28;21280;-76
2022/07/26 12:09:33;;;;;;;4.20;1.60;;;26.30;53.20;;;;;;5024964;28;20832;-77
2022/07/26 12:12:02;;;;;;;5.40;1.30;;;26.30;53.30;;;;;;5024408;28;20476;-77
2022/07/26 12:14:33;;;;;;;3.93;1.30;;;26.30;53.30;;;;;;5021907;28;20472;-77
2022/07/26 12:17:11;;;;;;;7.40;1.80;;;26.40;53.10;;;;;;5020250;28;20576;-77
2022/07/26 12:19:40;;;;;;;4.50;1.43;;;26.50;53.10;;;;;;5022632;28;20464;-77
2022/07/26 12:22:10;;;;;;;6.63;1.20;;;26.50;52.60;;;;;;5024180;28;20465;-77
2022/07/26 12:24:46;;;;;;;7.63;1.30;;;26.50;52.30;;;;;;5024008;28;20540;-76
2022/07/26 12:27:18;;;;;;;3.90;1.13;;;26.50;52.40;;;;;;5023094;28;20490;-77
2022/07/26 12:29:50;;;;;;;4.60;1.20;;;26.50;52.50;;;;;;5023563;28;21019;-77
2022/07/26 12:32:19;;;;;;;5.03;1.30;;;26.50;52.20;;;;;;5023126;28;20474;-76
2022/07/26 12:34:58;;;;;;;6.00;1.47;;;26.50;52.50;;;;;;5023475;28;20453;-77
2022/07/26 12:37:29;;;;;;;4.33;1.37;;;26.50;52.60;;;;;;5015832;28;20584;-77
2022/07/26 12:40:09;;;;;;;5.40;1.40;;;26.60;52.40;;;;;;5024039;28;20542;-77
2022/07/26 12:42:39;;;;;;;3.70;1.40;;;26.50;52.60;;;;;;5014695;28;20831;-77
2022/07/26 12:45:10;;;;;;;4.90;1.40;;;26.60;52.50;;;;;;5022007;28;20819;-77
2022/07/26 12:47:39;;;;;;;5.20;1.43;;;26.50;51.70;;;;;;5024234;28;20517;-77
2022/07/26 12:50:09;;;;;;;5.30;1.50;;;26.30;51.80;;;;;;5024952;28;20469;-77
2022/07/26 12:52:38;;;;;;;4.07;1.40;;;26.20;51.90;;;;;;5026650;28;20838;-77
2022/07/26 12:55:09;;;;;;;4.60;1.60;;;26.20;52.20;;;;;;5022149;28;20468;-77
2022/07/26 12:57:37;;;;;;;8.07;1.20;;;26.30;52.50;;;;;;5022645;28;21197;-77
2022/07/26 13:00:11;;;;;;;7.40;1.20;;;26.40;52.50;;;;;;5021696;28;20482;-76
2022/07/26 13:02:41;;;;;;;4.00;1.23;;;26.50;52.40;;;;;;5022254;28;21023;-77
2022/07/26 13:05:11;;;;;;;4.00;1.40;;;26.50;52.30;;;;;;5023587;28;20560;-77
2022/07/26 13:07:39;;;;;;;6.67;1.50;;;26.60;52.30;;;;;;5020594;28;20505;-77
2022/07/26 13:10:09;;;;;;;4.40;1.20;;;26.50;51.60;;;;;;5021718;28;20491;-77
2022/07/26 13:12:56;;;;;;;7.33;1.80;;;26.40;51.80;;;;;;5022040;28;20468;-77
2022/07/26 13:15:26;;;;;;;4.03;1.10;;;26.50;52.10;;;;;;5023255;28;20969;-77